Time;durP1;ratioP1;P1;durP2;ratioP2;P2;SDS_P1;SDS_P2;PMS_P1;PMS_P2;Temp;Humidity;BMP_temperature;BMP_pressure;BME280_temperature;BME280_humidity;BME280_pressure;Samples;Min_cycle;Max_cycle;Signal;HPM_P1;HPM_P2
2022/08/23 00:00:39;;;;;;;9.27;4.03;;;;;;;20.84;77.80;101486.56;5105220;28;20027;-66
2022/08/23 00:03:05;;;;;;;10.27;4.38;;;;;;;20.83;77.55;101490.19;5105977;28;20149;-64
2022/08/23 00:05:30;;;;;;;9.05;3.88;;;;;;;20.65;78.31;101489.59;5104708;28;20020;-65
2022/08/23 00:07:55;;;;;;;8.02;4.00;;;;;;;20.54;78.32;101488.50;5105714;28;20059;-64
2022/08/23 00:10:21;;;;;;;6.55;3.90;;;;;;;20.50;78.69;101492.31;5104405;28;20020;-65
2022/08/23 00:12:46;;;;;;;9.00;4.40;;;;;;;20.50;79.17;101488.81;5105213;28;20053;-66
2022/08/23 00:15:15;;;;;;;11.30;4.20;;;;;;;20.45;79.39;101497.13;5105625;28;20035;-65
2022/08/23 00:17:41;;;;;;;;;;;;;;;20.75;77.74;101506.78;5086577;28;20103;-66
2022/08/23 00:20:09;;;;;;;11.77;4.97;;;;;;;20.90;75.65;101514.75;5105072;28;20010;-66
2022/08/23 00:22:35;;;;;;;12.85;4.88;;;;;;;20.93;75.28;101512.75;5103353;28;20042;-65
2022/08/23 00:25:01;;;;;;;9.07;4.40;;;;;;;20.98;74.83;101509.72;5104772;28;20547;-65
2022/08/23 00:27:26;;;;;;;14.20;4.97;;;;;;;20.97;74.06;101524.09;5103554;28;20102;-65
2022/08/23 00:29:53;;;;;;;8.60;5.22;;;;;;;20.98;73.83;101515.09;5105596;28;20019;-66
2022/08/23 00:32:22;;;;;;;12.85;5.18;;;;;;;20.91;74.22;101514.66;5104893;28;20374;-63
2022/08/23 00:34:47;;;;;;;10.60;4.73;;;;;;;20.80;74.71;101517.19;5069763;28;20023;-66
2022/08/23 00:37:13;;;;;;;7.20;4.28;;;;;;;20.71;74.91;101522.16;5104352;28;20478;-65
2022/08/23 00:39:39;;;;;;;9.30;4.90;;;;;;;20.71;74.76;101522.16;5104614;28;20031;-65
2022/08/23 00:48:02;;;;;;;14.82;5.72;;;;;;;20.67;75.14;101515.31;5088908;28;20066;-64
2022/08/23 00:50:36;;;;;;;9.95;5.28;;;;;;;20.75;74.46;101514.81;5086464;28;20028;-64
2022/08/23 00:53:07;;;;;;;10.00;4.60;;;;;;;20.80;74.19;101511.81;5085898;28;20492;-64
2022/08/23 00:55:34;;;;;;;11.23;5.32;;;;;;;20.84;74.17;101522.19;5083776;28;20028;-66
2022/08/23 00:58:00;;;;;;;9.63;4.85;;;;;;;20.90;73.30;101522.81;5103890;28;20057;-66
2022/08/23 01:00:26;;;;;;;10.48;5.68;;;;;;;20.92;73.72;101520.88;5085462;28;20023;-65
2022/08/23 01:02:52;;;;;;;11.38;5.40;;;;;;;20.90;74.48;101512.09;5086897;28;20024;-64
2022/08/23 01:05:19;;;;;;;10.43;5.32;;;;;;;20.90;74.39;101512.97;5066018;22;20144;-64
2022/08/23 01:07:50;;;;;;;13.00;5.57;;;;;;;20.90;74.53;101504.91;5064188;28;20046;-64
2022/08/23 01:10:24;;;;;;;9.85;4.95;;;;;;;20.91;74.53;101501.28;5062796;28;20021;-65
2022/08/23 01:12:56;;;;;;;15.80;6.45;;;;;;;20.87;75.35;101505.09;5064791;28;20032;-66
2022/08/23 01:15:29;;;;;;;11.65;5.90;;;;;;;20.85;75.12;101512.34;5045641;28;20436;-65
2022/08/23 01:18:02;;;;;;;9.90;5.40;;;;;;;20.86;75.92;101506.03;5064419;28;20032;-64
2022/08/23 01:20:34;;;;;;;14.90;5.72;;;;;;;20.89;76.20;101510.34;5028839;28;20028;-67
2022/08/23 01:23:14;;;;;;;13.18;5.68;;;;;;;20.90;76.03;101514.75;5046613;28;20037;-65
2022/08/23 01:25:39;;;;;;;10.73;5.70;;;;;;;20.89;75.66;101511.19;5044402;28;20047;-65
2022/08/23 01:28:04;;;;;;;8.40;5.07;;;;;;;20.91;75.68;101508.44;5046550;28;20032;-65
2022/08/23 01:30:31;;;;;;;13.15;5.30;;;;;;;20.92;74.71;101519.03;5063473;28;20490;-64
2022/08/23 01:33:00;;;;;;;15.10;5.55;;;;;;;20.94;74.44;101511.78;5063952;28;20613;-65
2022/08/23 01:35:42;;;;;;;;;;;;;;;20.98;74.32;101507.06;5045670;28;20025;-64
2022/08/23 01:38:09;;;;;;;16.02;5.07;;;;;;;20.96;74.73;101507.16;5064150;28;19920;-64
2022/08/23 01:40:38;;;;;;;13.35;5.20;;;;;;;20.93;75.70;101507.38;5044894;28;20051;-64
2022/08/23 01:43:04;;;;;;;11.32;4.80;;;;;;;20.91;75.20;101509.31;5064163;28;20021;-64
2022/08/23 01:45:30;;;;;;;10.05;5.03;;;;;;;20.92;75.17;101502.97;5045024;28;20120;-64
2022/08/23 01:47:56;;;;;;;11.38;5.07;;;;;;;20.89;75.30;101511.19;5046320;28;20112;-65
2022/08/23 01:50:22;;;;;;;10.90;5.13;;;;;;;20.87;75.60;101505.09;5063174;28;20168;-65
2022/08/23 01:52:47;;;;;;;10.05;4.45;;;;;;;20.87;76.16;101501.53;5062876;28;20143;-64
2022/08/23 01:55:13;;;;;;;12.02;5.10;;;;;;;20.82;76.17;101499.16;5066414;28;20320;-65
2022/08/23 01:57:40;;;;;;;11.88;4.40;;;;;;;20.86;76.27;101494.47;5066613;28;20021;-65
2022/08/23 02:00:07;;;;;;;7.95;4.40;;;;;;;20.91;75.74;101500.41;5066742;28;20016;-64
2022/08/23 02:02:32;;;;;;;11.82;5.30;;;;;;;20.91;75.77;101495.91;5067263;28;20087;-64
2022/08/23 02:04:57;;;;;;;11.32;4.70;;;;;;;20.89;75.76;101500.47;5066931;28;20094;-64
2022/08/23 02:07:27;;;;;;;11.45;5.05;;;;;;;20.84;76.40;101489.22;5067508;28;20111;-64
2022/08/23 02:09:52;;;;;;;13.98;5.63;;;;;;;20.84;76.23;101491.91;5067936;28;20052;-64
2022/08/23 02:12:17;;;;;;;7.88;4.80;;;;;;;20.89;75.87;101500.47;5066618;28;20584;-64
2022/08/23 02:14:43;;;;;;;10.93;4.70;;;;;;;20.94;75.87;101501.06;5066538;28;20040;-65
2022/08/23 02:17:08;;;;;;;11.48;4.57;;;;;;;20.97;75.95;101508.03;5067073;28;20048;-65
2022/08/23 02:19:35;;;;;;;9.00;4.93;;;;;;;21.00;75.73;101497.09;5067272;28;20025;-65
2022/08/23 02:22:00;;;;;;;12.90;5.20;;;;;;;21.01;76.45;101496.13;5066419;28;20016;-65
2022/08/23 02:24:26;;;;;;;10.40;5.05;;;;;;;21.04;75.91;101498.59;5049108;28;20045;-64
2022/08/23 02:26:54;;;;;;;9.93;4.97;;;;;;;21.06;76.11;101496.69;5066222;28;20043;-65
2022/08/23 02:29:21;;;;;;;14.00;4.68;;;;;;;21.04;76.81;101501.28;5067707;28;20029;-66
2022/08/23 02:31:47;;;;;;;13.77;5.28;;;;;;;21.01;76.99;101504.16;5065153;28;20021;-64
2022/08/23 02:34:15;;;;;;;10.88;5.28;;;;;;;21.03;77.35;101498.72;5066588;28;20032;-64
2022/08/23 02:36:41;;;;;;;9.57;4.82;;;;;;;21.03;77.47;101501.38;5065333;28;20017;-65
2022/08/23 02:39:06;;;;;;;13.88;5.45;;;;;;;21.03;77.51;101502.25;5066988;28;20032;-65
2022/08/23 02:41:32;;;;;;;9.02;4.90;;;;;;;21.08;77.23;101504.63;5064680;28;20489;-64
2022/08/23 02:43:59;;;;;;;9.68;5.25;;;;;;;21.06;77.65;101512.75;5066236;28;20056;-63
2022/08/23 02:46:24;;;;;;;11.13;5.30;;;;;;;21.03;78.71;101510.28;5066599;28;20024;-64
2022/08/23 02:48:50;;;;;;;13.95;5.50;;;;;;;21.02;78.48;101511.25;5066468;28;20036;-65
2022/08/23 02:51:16;;;;;;;7.75;5.72;;;;;;;21.05;77.88;101512.88;5065546;28;20024;-65
2022/08/23 02:53:42;;;;;;;11.57;5.57;;;;;;;21.07;78.38;101514.47;5066476;28;20135;-65
2022/08/23 02:56:08;;;;;;;10.73;5.97;;;;;;;21.03;78.43;101518.31;5065044;28;20099;-66
2022/08/23 02:58:33;;;;;;;14.07;6.82;;;;;;;21.03;78.23;101518.31;5066218;28;20021;-66
2022/08/23 03:00:59;;;;;;;13.35;6.13;;;;;;;21.03;78.93;101512.09;5066136;28;20082;-66
2022/08/23 03:03:25;;;;;;;8.10;5.28;;;;;;;21.05;79.04;101513.75;5066358;28;20021;-64
2022/08/23 03:05:50;;;;;;;14.35;6.18;;;;;;;21.06;79.28;101518.13;5065005;28;20036;-65
2022/08/23 03:08:16;;;;;;;10.65;5.95;;;;;;;21.10;78.66;101515.25;5066459;28;20458;-65
2022/08/23 03:10:44;;;;;;;13.93;6.32;;;;;;;21.07;78.19;101511.78;5064146;28;20139;-64
2022/08/23 03:13:09;;;;;;;12.80;5.65;;;;;;;21.08;79.41;101515.34;5065038;28;20107;-65
2022/08/23 03:15:34;;;;;;;16.70;7.03;;;;;;;21.06;79.13;101512.75;5065141;28;20037;-66
2022/08/23 03:18:00;;;;;;;16.70;7.07;;;;;;;21.04;77.83;101520.03;5065884;28;20060;-65
2022/08/23 03:20:25;;;;;;;16.25;6.22;;;;;;;21.08;77.12;101516.19;5065884;28;20103;-64
2022/08/23 03:22:51;;;;;;;12.00;5.80;;;;;;;21.11;76.63;101512.47;5065313;28;20658;-65
2022/08/23 03:25:16;;;;;;;11.57;6.10;;;;;;;21.11;76.58;101517.81;5065739;28;20107;-65
2022/08/23 03:27:42;;;;;;;16.40;6.40;;;;;;;21.10;77.48;101513.41;5065295;28;20105;-65
2022/08/23 03:30:08;;;;;;;9.45;5.80;;;;;;;21.13;77.17;101515.88;5065760;28;20025;-66
2022/08/23 03:32:34;;;;;;;10.80;5.97;;;;;;;21.13;77.78;101507.84;5063211;28;20044;-65
2022/08/23 03:34:59;;;;;;;13.45;5.78;;;;;;;21.15;77.83;101508.59;5065485;28;20037;-65
2022/08/23 03:37:24;;;;;;;10.40;5.45;;;;;;;21.16;77.59;101506.78;5064240;28;20039;-66
2022/08/23 03:39:51;;;;;;;11.55;6.22;;;;;;;21.16;76.97;101504.94;5065022;28;20031;-65
2022/08/23 03:42:16;;;;;;;14.18;6.45;;;;;;;21.18;76.72;101510.19;5047268;28;20023;-66
2022/08/23 03:44:42;;;;;;;14.13;5.90;;;;;;;21.17;76.28;101514.72;5047390;28;20032;-65
2022/08/23 03:47:07;;;;;;;11.00;5.20;;;;;;;21.15;75.87;101516.63;5064669;28;20023;-66
2022/08/23 03:49:33;;;;;;;10.00;5.93;;;;;;;21.15;75.89;101505.91;5065392;28;20078;-66
2022/08/23 03:51:59;;;;;;;12.10;5.50;;;;;;;21.16;75.45;101520.19;5064279;28;20359;-66
2022/08/23 03:54:25;;;;;;;12.85;6.07;;;;;;;21.15;75.91;101513.09;5064731;28;20100;-65
2022/08/23 03:56:53;;;;;;;9.85;5.38;;;;;;;21.21;75.36;101510.00;5063563;28;20111;-66
2022/08/23 03:59:19;;;;;;;9.98;4.68;;;;;;;21.23;75.36;101515.25;5064666;28;20024;-65
2022/08/23 04:01:44;;;;;;;8.93;5.38;;;;;;;21.24;75.11;101511.59;5064930;28;20560;-66
2022/08/23 04:04:09;;;;;;;17.58;5.50;;;;;;;21.24;75.06;101511.59;5064563;28;20502;-64
2022/08/23 04:06:35;;;;;;;14.45;5.65;;;;;;;21.20;75.12;101519.84;5065093;28;20024;-65
2022/08/23 04:09:01;;;;;;;9.60;4.88;;;;;;;21.14;75.27;101514.94;5063320;28;20426;-66
2022/08/23 04:11:27;;;;;;;16.02;5.57;;;;;;;21.09;75.85;101514.38;5031353;28;20451;-65
2022/08/23 04:13:52;;;;;;;13.80;4.93;;;;;;;21.08;75.80;101518.03;5044435;28;20772;-65
2022/08/23 04:16:18;;;;;;;10.57;5.03;;;;;;;21.03;76.33;101526.38;5053122;28;20028;-63
2022/08/23 04:18:44;;;;;;;7.88;4.88;;;;;;;21.01;76.12;101525.59;5064319;28;20032;-63
2022/08/23 04:21:13;;;;;;;8.75;5.00;;;;;;;20.97;76.26;101524.09;5061503;28;20123;-63
2022/08/23 04:23:39;;;;;;;14.45;5.47;;;;;;;20.93;76.81;101531.50;5063154;28;20020;-62
2022/08/23 04:26:05;;;;;;;11.20;5.13;;;;;;;20.89;76.68;101532.59;5045788;28;20021;-62
2022/08/23 04:28:32;;;;;;;10.80;4.68;;;;;;;20.89;76.84;101527.25;5062425;28;20699;-63
2022/08/23 04:30:59;;;;;;;13.27;5.32;;;;;;;20.85;77.13;101531.09;5064046;28;20017;-62
2022/08/23 04:33:25;;;;;;;10.35;5.25;;;;;;;20.81;77.17;101533.16;5064028;28;20025;-63
2022/08/23 04:35:51;;;;;;;8.80;5.35;;;;;;;20.81;77.03;101526.94;5064158;28;20058;-64
2022/08/23 04:38:16;;;;;;;8.65;5.25;;;;;;;20.82;77.23;101528.63;5064248;28;20056;-63
2022/08/23 04:43:26;;;;;;;8.30;5.03;;;;;;;20.82;77.77;101531.31;5063552;28;20771;-63
2022/08/23 04:45:51;;;;;;;9.55;4.82;;;;;;;20.81;78.26;101529.59;5064450;28;20021;-63
2022/08/23 04:48:17;;;;;;;10.35;5.70;;;;;;;20.75;78.67;101528.19;5063985;28;20668;-64
2022/08/23 04:50:42;;;;;;;13.45;5.72;;;;;;;20.74;78.16;101522.94;5063562;28;20389;-63
2022/08/23 04:53:08;;;;;;;11.82;5.35;;;;;;;20.71;78.60;101524.84;5063511;28;20060;-64
2022/08/23 04:55:33;;;;;;;9.65;4.57;;;;;;;20.70;78.63;101528.50;5062808;28;20525;-63
2022/08/23 04:57:59;;;;;;;13.55;5.80;;;;;;;20.68;79.00;101534.91;5063893;28;20574;-64
2022/08/23 05:00:24;;;;;;;13.38;5.70;;;;;;;20.62;79.31;101543.34;5063193;28;20593;-63
2022/08/23 05:02:49;;;;;;;13.32;5.65;;;;;;;20.60;79.40;101540.78;5063950;28;20059;-64
2022/08/23 05:05:15;;;;;;;10.50;5.03;;;;;;;20.66;79.12;101551.09;5063430;28;20045;-64
2022/08/23 05:07:40;;;;;;;11.25;4.70;;;;;;;20.88;78.74;101552.34;5063541;28;20074;-64
2022/08/23 05:10:08;;;;;;;14.30;5.43;;;;;;;20.96;78.13;101555.38;5062518;28;20731;-63
2022/08/23 05:12:34;;;;;;;12.32;6.10;;;;;;;21.01;78.54;101563.09;5063833;28;20492;-63
2022/08/23 05:14:59;;;;;;;16.70;6.85;;;;;;;21.01;77.92;101559.59;5062831;28;20028;-62
2022/08/23 05:17:25;;;;;;;9.52;6.28;;;;;;;21.03;77.77;101557.66;5064130;28;20025;-64
2022/08/23 05:19:50;;;;;;;15.48;6.32;;;;;;;21.04;78.04;101564.75;5063896;28;20081;-63
2022/08/23 05:22:15;;;;;;;20.27;6.68;;;;;;;21.03;78.29;101554.97;5062858;28;20056;-64
2022/08/23 05:24:41;;;;;;;12.43;6.32;;;;;;;21.00;78.82;101558.72;5062137;28;20067;-62
2022/08/23 05:27:06;;;;;;;10.88;5.95;;;;;;;21.06;78.75;101554.75;5044804;28;20103;-62
2022/08/23 05:29:31;;;;;;;12.35;5.93;;;;;;;21.02;79.21;101561.28;5065431;28;20158;-64
2022/08/23 05:31:57;;;;;;;13.80;6.43;;;;;;;21.01;78.82;101557.75;5058226;28;20131;-63
2022/08/23 05:34:22;;;;;;;13.13;6.07;;;;;;;21.03;79.04;101563.00;5056826;28;20151;-64
2022/08/23 05:36:47;;;;;;;8.10;5.20;;;;;;;21.06;78.24;101563.66;5056183;28;20024;-64
2022/08/23 05:39:14;;;;;;;9.38;5.15;;;;;;;21.10;78.34;101572.34;5061308;28;20045;-64
2022/08/23 05:41:40;;;;;;;14.18;6.20;;;;;;;21.06;78.95;101573.50;5066344;28;20099;-64
2022/08/23 05:44:05;;;;;;;14.90;6.68;;;;;;;21.01;79.30;101570.31;5048658;28;20448;-65
2022/08/23 05:46:32;;;;;;;13.43;6.35;;;;;;;20.99;79.33;101569.53;5066459;28;20490;-65
2022/08/23 05:48:57;;;;;;;12.15;6.38;;;;;;;20.96;79.75;101566.09;5065637;28;20523;-61
2022/08/23 05:51:28;;;;;;;10.93;6.03;;;;;;;20.98;80.04;101570.50;5066978;28;20056;-63
2022/08/23 05:53:57;;;;;;;12.82;6.88;;;;;;;20.98;79.93;101567.81;5065413;28;20122;-64
2022/08/23 05:56:27;;;;;;;10.65;6.60;;;;;;;20.94;80.06;101573.38;5065549;28;20097;-63
2022/08/23 05:58:55;;;;;;;12.93;6.20;;;;;;;21.03;79.73;101571.03;5067434;28;20099;-64
2022/08/23 06:01:21;;;;;;;14.05;6.00;;;;;;;21.11;79.50;101573.22;5066527;28;20028;-63
2022/08/23 06:03:46;;;;;;;11.77;6.40;;;;;;;21.07;79.34;101576.09;5066422;28;20662;-63
2022/08/23 06:06:14;;;;;;;14.07;7.15;;;;;;;21.06;79.75;101571.72;5066165;28;20032;-63
2022/08/23 06:08:40;;;;;;;15.38;6.82;;;;;;;21.11;79.75;101578.56;5066560;28;20032;-65
2022/08/23 06:11:09;;;;;;;19.45;7.80;;;;;;;21.14;79.87;101579.22;5065317;28;20028;-63
2022/08/23 06:13:39;;;;;;;17.85;8.40;;;;;;;21.24;79.91;101589.31;5066168;28;20024;-63
2022/08/23 06:16:05;;;;;;;18.75;7.15;;;;;;;21.41;79.17;101585.50;5065599;28;20540;-65
2022/08/23 06:18:30;;;;;;;18.10;7.07;;;;;;;21.49;78.21;101582.28;5066130;28;20032;-66
2022/08/23 06:21:03;;;;;;;17.10;8.25;;;;;;;21.60;78.03;101590.44;5060506;28;20036;-69
2022/08/23 06:23:29;;;;;;;17.88;9.07;;;;;;;21.65;76.25;101585.63;5055808;28;20551;-69
2022/08/23 06:25:55;;;;;;;17.27;8.10;;;;;;;21.81;75.84;101588.13;5046509;28;20111;-65
2022/08/23 06:28:21;;;;;;;19.30;7.25;;;;;;;22.02;75.00;101590.25;5028503;28;20021;-63
2022/08/23 06:30:46;;;;;;;14.70;7.15;;;;;;;22.15;72.90;101590.22;5062887;28;20044;-63
2022/08/23 06:33:12;;;;;;;12.95;6.72;;;;;;;22.33;72.68;101592.53;5066396;28;20029;-63
2022/08/23 06:35:38;;;;;;;18.33;8.40;;;;;;;22.51;71.02;101578.78;5066321;28;20036;-63
2022/08/23 06:38:03;;;;;;;23.38;8.85;;;;;;;22.54;71.37;101590.13;5064389;28;20028;-63
2022/08/23 06:40:28;;;;;;;17.27;8.32;;;;;;;22.56;71.13;101590.88;5063936;28;20482;-63
2022/08/23 06:42:54;;;;;;;18.35;9.40;;;;;;;22.62;71.06;101591.44;5065224;28;20478;-64
2022/08/23 06:45:19;;;;;;;18.75;8.40;;;;;;;22.78;70.68;101592.00;5064981;28;20516;-64
2022/08/23 06:47:44;;;;;;;16.83;9.30;;;;;;;22.84;69.87;101588.88;5056638;28;20110;-63
2022/08/23 06:50:10;;;;;;;22.35;8.82;;;;;;;22.88;69.88;101597.56;5045782;28;20344;-63
2022/08/23 06:52:35;;;;;;;18.00;8.60;;;;;;;22.91;70.45;101586.56;5048750;28;20450;-64
2022/08/23 06:55:01;;;;;;;17.45;8.15;;;;;;;23.00;70.60;101593.09;5058552;28;20033;-63
2022/08/23 06:57:27;;;;;;;19.85;8.65;;;;;;;23.08;70.26;101589.81;5064162;28;20029;-65
2022/08/23 06:59:52;;;;;;;18.10;9.02;;;;;;;23.17;70.10;101589.13;5065616;28;20025;-64
2022/08/23 07:02:17;;;;;;;20.05;9.45;;;;;;;23.30;69.34;101591.72;5063944;28;20048;-65
2022/08/23 07:04:43;;;;;;;16.58;7.63;;;;;;;23.53;68.76;101590.94;5064495;28;20045;-65
2022/08/23 07:07:09;;;;;;;20.80;8.80;;;;;;;23.56;67.69;101596.09;5065329;28;20436;-66
2022/08/23 07:09:34;;;;;;;20.67;8.73;;;;;;;23.68;67.15;101605.91;5064077;28;20084;-64
2022/08/23 07:12:00;;;;;;;16.55;9.02;;;;;;;23.82;66.93;101602.16;5064524;28;20086;-66
2022/08/23 07:14:26;;;;;;;19.80;8.88;;;;;;;23.95;66.76;101604.72;5064722;28;20013;-64
2022/08/23 07:16:55;;;;;;;20.15;8.93;;;;;;;24.06;66.38;101609.25;5055792;28;20036;-67
2022/08/23 07:19:23;;;;;;;21.20;7.82;;;;;;;24.27;65.65;101607.66;5066092;28;20028;-63
2022/08/23 07:21:49;;;;;;;15.43;7.68;;;;;;;24.33;66.00;101605.34;5065036;28;20031;-64
2022/08/23 07:24:15;;;;;;;19.08;7.97;;;;;;;24.23;65.66;101605.22;5063782;28;20029;-63
2022/08/23 07:26:42;;;;;;;19.17;8.88;;;;;;;24.38;65.60;101604.13;5061298;28;20071;-65
2022/08/23 07:29:08;;;;;;;13.70;8.57;;;;;;;24.49;65.38;101609.47;5054723;28;20028;-63
2022/08/23 07:31:38;;;;;;;18.67;10.00;;;;;;;24.49;65.60;101609.47;5036787;28;20056;-63
2022/08/23 07:34:04;;;;;;;15.85;7.78;;;;;;;24.52;65.71;101611.06;5054772;28;20029;-63
2022/08/23 07:36:31;;;;;;;19.27;9.80;;;;;;;24.60;65.84;101617.53;5046918;28;20079;-64
2022/08/23 07:38:57;;;;;;;12.93;7.65;;;;;;;24.73;65.56;101616.53;5063798;28;20047;-63
2022/08/23 07:41:26;;;;;;;11.23;6.05;;;;;;;24.83;64.98;101620.16;5064539;28;20056;-65
2022/08/23 07:43:51;;;;;;;12.73;6.28;;;;;;;24.97;64.81;101615.50;5056980;28;20028;-64
2022/08/23 07:46:17;;;;;;;12.85;7.55;;;;;;;24.98;64.00;101615.38;5054414;28;20367;-65
2022/08/23 07:48:42;;;;;;;14.05;6.50;;;;;;;24.99;64.25;101611.69;5035402;28;20657;-64
2022/08/23 07:51:12;;;;;;;14.85;7.28;;;;;;;25.07;63.95;101612.91;5051544;28;20431;-63
2022/08/23 07:53:37;;;;;;;12.48;7.10;;;;;;;25.17;63.29;101616.53;5053414;28;20359;-63
2022/08/23 07:56:08;;;;;;;13.57;5.85;;;;;;;25.19;63.40;101616.41;5052579;28;20055;-64
2022/08/23 07:58:35;;;;;;;15.27;7.85;;;;;;;25.11;63.67;101619.75;5063460;28;20131;-64
2022/08/23 08:01:16;;;;;;;17.05;7.75;;;;;;;25.27;63.45;101623.81;5062306;28;20200;-64
2022/08/23 08:03:44;;;;;;;14.25;6.90;;;;;;;25.28;63.39;101622.84;5063560;28;20470;-63
2022/08/23 08:06:13;;;;;;;15.27;6.40;;;;;;;25.23;63.15;101621.38;5063482;28;20033;-64
2022/08/23 08:08:39;;;;;;;17.05;6.03;;;;;;;25.33;63.02;101618.78;5063772;28;20031;-63
2022/08/23 08:11:06;;;;;;;12.57;6.07;;;;;;;25.33;62.98;101629.56;5063650;28;20024;-65
2022/08/23 08:13:32;;;;;;;13.23;5.45;;;;;;;25.57;62.69;101628.44;5061337;28;20041;-64
2022/08/23 08:15:57;;;;;;;12.07;5.70;;;;;;;25.70;62.20;101639.06;5064391;28;20033;-62
2022/08/23 08:18:22;;;;;;;12.48;5.13;;;;;;;25.86;61.19;101638.56;5064211;28;20518;-63
2022/08/23 08:20:48;;;;;;;9.38;4.50;;;;;;;25.91;60.95;101643.56;5063844;28;20655;-64
2022/08/23 08:23:13;;;;;;;8.88;3.72;;;;;;;25.99;61.13;101646.47;5064359;28;20024;-64
2022/08/23 08:25:38;;;;;;;6.28;3.63;;;;;;;26.42;60.18;101650.91;5058165;28;20080;-64
2022/08/23 08:28:04;;;;;;;9.73;3.75;;;;;;;26.82;58.76;101657.28;5055776;28;20032;-64
2022/08/23 08:30:29;;;;;;;6.63;3.70;;;;;;;26.94;57.88;101653.44;5060150;28;20107;-64
2022/08/23 08:32:55;;;;;;;6.45;4.05;;;;;;;27.12;57.20;101650.09;5056107;28;20103;-64
2022/08/23 08:35:20;;;;;;;10.23;3.90;;;;;;;27.64;55.79;101654.31;5048942;28;20052;-63
2022/08/23 08:37:45;;;;;;;11.63;3.85;;;;;;;27.70;56.05;101644.78;5055372;28;20028;-65
2022/08/23 08:40:11;;;;;;;8.32;3.50;;;;;;;27.84;55.38;101647.00;5063494;28;20089;-63
2022/08/23 08:42:46;;;;;;;10.05;4.32;;;;;;;27.85;56.15;101651.44;5062897;28;20066;-66
2022/08/23 08:45:19;;;;;;;12.45;4.18;;;;;;;28.07;55.61;101654.78;5063205;28;20028;-64
2022/08/23 08:47:56;;;;;;;9.48;4.60;;;;;;;28.08;54.23;101659.19;5063240;28;20032;-64
2022/08/23 08:50:40;;;;;;;11.45;4.82;;;;;;;28.16;54.89;101655.75;5063964;28;20097;-64
2022/08/23 08:53:28;;;;;;;15.88;4.53;;;;;;;28.29;54.52;101659.97;5044251;28;20024;-65
2022/08/23 08:55:57;;;;;;;8.45;4.07;;;;;;;28.23;55.62;101664.13;5044814;28;20493;-65
2022/08/23 08:58:35;;;;;;;13.82;3.10;;;;;;;28.43;54.18;101654.06;5045156;28;20419;-63
2022/08/23 09:01:01;;;;;;;6.28;2.80;;;;;;;28.39;53.39;101668.94;5045962;28;20028;-65
2022/08/23 09:03:31;;;;;;;7.88;3.42;;;;;;;28.44;52.71;101653.06;5063215;28;20059;-65
2022/08/23 09:06:10;;;;;;;7.10;2.72;;;;;;;27.98;53.95;101659.22;5045150;28;20415;-63
2022/08/23 09:08:44;;;;;;;;;;;;;;;28.17;53.92;101652.03;5064214;28;20040;-63
2022/08/23 09:11:30;;;;;;;9.18;3.00;;;;;;;28.15;54.67;101654.03;5062459;28;19913;-66
2022/08/23 09:14:11;;;;;;;10.48;3.45;;;;;;;28.57;52.53;101658.16;5062984;28;20039;-63
2022/08/23 09:17:02;;;;;;;7.93;2.95;;;;;;;28.57;53.04;101657.28;5043664;28;20676;-64
2022/08/23 09:19:30;;;;;;;11.57;3.05;;;;;;;28.71;53.25;101656.75;5029088;28;20039;-65
2022/08/23 09:22:02;;;;;;;8.48;3.47;;;;;;;28.81;51.04;101658.56;5045495;28;20098;-64
2022/08/23 09:24:29;;;;;;;13.43;3.55;;;;;;;28.82;51.33;101650.28;5043887;28;20040;-65
2022/08/23 09:26:55;;;;;;;6.50;2.95;;;;;;;28.96;51.81;101653.47;5063590;28;20072;-65
2022/08/23 09:29:30;;;;;;;14.43;3.30;;;;;;;29.02;52.25;101655.59;5063735;28;20078;-65
2022/08/23 09:32:01;;;;;;;9.70;3.22;;;;;;;29.34;52.26;101653.28;5043875;28;20029;-65
2022/08/23 09:34:29;;;;;;;7.68;3.63;;;;;;;29.31;53.68;101659.88;5042938;28;20116;-64
2022/08/23 09:37:21;;;;;;;8.80;2.92;;;;;;;29.32;52.96;101658.03;5055571;28;20037;-66
2022/08/23 09:39:50;;;;;;;13.00;3.75;;;;;;;29.29;52.67;101661.94;5061625;28;20154;-64
2022/08/23 09:42:29;;;;;;;;;;;;;;;29.34;51.13;101661.44;5063102;28;20046;-64
2022/08/23 09:44:55;;;;;;;13.30;4.30;;;;;;;29.28;51.83;101662.09;5062901;28;19913;-65
2022/08/23 09:47:30;;;;;;;8.63;4.07;;;;;;;29.30;52.27;101665.47;5061372;28;20024;-65
2022/08/23 09:50:06;;;;;;;12.50;3.85;;;;;;;29.12;52.89;101667.22;5062154;28;20032;-65
2022/08/23 09:52:34;;;;;;;9.27;4.13;;;;;;;29.05;53.55;101660.69;5062567;28;20097;-64
2022/08/23 09:55:26;;;;;;;6.18;3.22;;;;;;;29.31;52.44;101656.34;5061745;28;20028;-65
2022/08/23 09:57:52;;;;;;;9.25;3.83;;;;;;;29.77;50.63;101648.88;5045170;28;20109;-63
2022/08/23 10:00:23;;;;;;;12.90;3.40;;;;;;;29.73;49.56;101658.38;5062294;28;20468;-65
2022/08/23 10:02:49;;;;;;;11.23;3.55;;;;;;;29.48;50.81;101657.31;5062799;28;20056;-64
2022/08/23 10:05:14;;;;;;;6.35;2.70;;;;;;;29.30;51.13;101652.78;5044314;28;20495;-65
2022/08/23 10:07:42;;;;;;;8.00;2.70;;;;;;;29.08;53.26;101654.09;5062757;28;20032;-64
2022/08/23 10:10:28;;;;;;;7.05;2.72;;;;;;;28.87;54.68;101658.78;5061240;28;20025;-66
2022/08/23 10:12:54;;;;;;;9.45;2.85;;;;;;;29.10;53.13;101643.94;5044999;28;20475;-64
2022/08/23 10:15:22;;;;;;;9.55;2.67;;;;;;;29.12;52.89;101639.22;5047273;28;20108;-64
2022/08/23 10:17:59;;;;;;;5.95;2.42;;;;;;;28.84;53.56;101641.97;5066790;28;20115;-64
2022/08/23 10:20:41;;;;;;;6.05;2.50;;;;;;;28.70;54.49;101641.50;5065587;28;20052;-65
2022/08/23 10:23:32;;;;;;;3.72;2.03;;;;;;;28.87;53.18;101631.66;5048984;28;20056;-64
2022/08/23 10:25:58;;;;;;;8.48;2.75;;;;;;;28.76;53.76;101632.75;5065498;28;20120;-63
2022/08/23 10:31:33;;;;;;;;;;;;;;;29.24;52.71;101635.25;5064842;28;20035;-64
2022/08/23 10:34:13;;;;;;;6.20;2.38;;;;;;;29.49;51.86;101626.44;5065098;28;19926;-64
2022/08/23 10:36:47;;;;;;;7.03;2.20;;;;;;;29.35;52.64;101631.41;5065430;28;20597;-63
2022/08/23 10:39:23;;;;;;;8.50;2.30;;;;;;;29.27;52.29;101631.38;5049812;28;20027;-64
2022/08/23 10:42:01;;;;;;;8.55;2.00;;;;;;;29.43;52.21;101636.06;5066098;28;20115;-65
2022/08/23 10:44:27;;;;;;;7.15;2.20;;;;;;;29.79;50.42;101627.00;5066471;28;20021;-65
2022/08/23 10:47:26;;;;;;;7.53;2.20;;;;;;;30.12;49.54;101634.47;5066457;28;20036;-65
2022/08/23 10:49:52;;;;;;;8.15;2.00;;;;;;;30.36;49.05;101630.16;5066303;28;20044;-65
2022/08/23 10:52:22;;;;;;;9.27;1.80;;;;;;;30.78;48.03;101633.88;5066639;28;20041;-65
2022/08/23 10:54:59;;;;;;;4.47;1.75;;;;;;;31.00;47.25;101643.25;5064504;28;20119;-63
2022/08/23 10:57:32;;;;;;;7.50;1.95;;;;;;;30.89;48.05;101636.28;5042549;28;20100;-63
2022/08/23 10:59:58;;;;;;;5.70;1.90;;;;;;;31.01;46.76;101628.63;5039507;28;20451;-66
2022/08/23 11:02:51;;;;;;;4.90;2.00;;;;;;;30.96;47.32;101633.72;5055582;28;20453;-65
2022/08/23 11:05:28;;;;;;;7.15;1.95;;;;;;;30.87;46.45;101637.44;5057032;28;20036;-62
2022/08/23 11:08:01;;;;;;;5.60;1.83;;;;;;;30.93;45.99;101631.34;5064808;28;20021;-61
2022/08/23 11:10:38;;;;;;;6.38;1.58;;;;;;;30.82;47.36;101634.41;5044109;28;20121;-62
2022/08/23 11:13:19;;;;;;;6.63;1.65;;;;;;;31.05;45.95;101633.72;5065542;28;20419;-61
2022/08/23 11:15:57;;;;;;;7.32;1.50;;;;;;;30.94;45.86;101634.91;5062914;28;20128;-61
2022/08/23 11:18:25;;;;;;;5.57;1.55;;;;;;;30.58;46.96;101634.13;5062798;28;20031;-61
2022/08/23 11:20:51;;;;;;;;;;;;;;;30.66;45.83;101635.19;5063151;28;20060;-61
2022/08/23 11:23:37;;;;;;;4.47;1.48;;;;;;;30.78;46.44;101647.47;5056995;28;20385;-61
2022/08/23 11:26:05;;;;;;;5.65;1.45;;;;;;;31.09;45.35;101648.72;5051652;28;20039;-61
2022/08/23 11:28:39;;;;;;;4.35;1.48;;;;;;;31.07;45.33;101642.56;5043237;28;20653;-62
2022/08/23 11:31:07;;;;;;;5.90;1.70;;;;;;;30.99;44.96;101651.56;5037537;28;20064;-63
2022/08/23 11:33:43;;;;;;;7.15;1.83;;;;;;;30.95;44.60;101652.94;5060517;28;20032;-61
2022/08/23 11:36:08;;;;;;;5.85;1.88;;;;;;;30.80;44.88;101647.31;5041397;28;20123;-64
2022/08/23 11:38:45;;;;;;;3.47;1.43;;;;;;;30.79;45.39;101649.16;5063353;28;20123;-62